sensor_id;sensor_type;location;lat;lon;timestamp;temperature;humidity
34492;DHT22;20737;49.908;8.126;2023-05-07T00:01:17;14.40;99.90
34492;DHT22;20737;49.908;8.126;2023-05-07T00:03:44;14.40;99.90
34492;DHT22;20737;49.908;8.126;2023-05-07T00:06:11;14.40;99.90
34492;DHT22;20737;49.908;8.126;2023-05-07T00:08:39;14.40;99.90
34492;DHT22;20737;49.908;8.126;2023-05-07T00:11:07;14.40;99.90
34492;DHT22;20737;49.908;8.126;2023-05-07T00:13:33;14.30;99.90
34492;DHT22;20737;49.908;8.126;2023-05-07T00:16:01;14.30;99.90
34492;DHT22;20737;49.908;8.126;2023-05-07T00:18:27;14.20;99.90
34492;DHT22;20737;49.908;8.126;2023-05-07T00:20:54;14.10;99.90
34492;DHT22;20737;49.908;8.126;2023-05-07T00:23:21;14.10;99.90
34492;DHT22;20737;49.908;8.126;2023-05-07T00:25:50;14.00;99.90
34492;DHT22;20737;49.908;8.126;2023-05-07T00:28:16;14.00;99.90
34492;DHT22;20737;49.908;8.126;2023-05-07T00:30:43;14.00;99.90
34492;DHT22;20737;49.908;8.126;2023-05-07T00:33:10;13.90;99.90
34492;DHT22;20737;49.908;8.126;2023-05-07T00:35:36;13.90;99.90
34492;DHT22;20737;49.908;8.126;2023-05-07T00:38:03;13.90;99.90
34492;DHT22;20737;49.908;8.126;2023-05-07T00:40:30;13.80;99.90
34492;DHT22;20737;49.908;8.126;2023-05-07T00:42:58;13.80;99.90
34492;DHT22;20737;49.908;8.126;2023-05-07T00:45:26;13.70;99.90
34492;DHT22;20737;49.908;8.126;2023-05-07T00:47:54;13.80;99.90
34492;DHT22;20737;49.908;8.126;2023-05-07T00:50:21;13.70;99.90
34492;DHT22;20737;49.908;8.126;2023-05-07T00:52:47;13.70;99.90
34492;DHT22;20737;49.908;8.126;2023-05-07T00:55:14;13.70;99.90
34492;DHT22;20737;49.908;8.126;2023-05-07T00:57:41;13.60;99.90
34492;DHT22;20737;49.908;8.126;2023-05-07T01:00:10;13.60;99.90
34492;DHT22;20737;49.908;8.126;2023-05-07T01:02:38;13.50;99.90
34492;DHT22;20737;49.908;8.126;2023-05-07T01:05:06;13.50;99.90
34492;DHT22;20737;49.908;8.126;2023-05-07T01:07:34;13.50;99.90
34492;DHT22;20737;49.908;8.126;2023-05-07T01:10:02;13.40;99.90
34492;DHT22;20737;49.908;8.126;2023-05-07T01:12:29;13.50;99.90
34492;DHT22;20737;49.908;8.126;2023-05-07T01:14:57;13.40;99.90
34492;DHT22;20737;49.908;8.126;2023-05-07T01:17:25;13.30;99.90
34492;DHT22;20737;49.908;8.126;2023-05-07T01:19:52;13.30;99.90
34492;DHT22;20737;49.908;8.126;2023-05-07T01:22:28;13.30;99.90
34492;DHT22;20737;49.908;8.126;2023-05-07T01:24:56;13.30;99.90
34492;DHT22;20737;49.908;8.126;2023-05-07T01:27:24;13.30;99.90
34492;DHT22;20737;49.908;8.126;2023-05-07T01:29:51;13.30;99.90
34492;DHT22;20737;49.908;8.126;2023-05-07T01:32:20;13.30;99.90
34492;DHT22;20737;49.908;8.126;2023-05-07T01:34:48;13.30;99.90
34492;DHT22;20737;49.908;8.126;2023-05-07T01:37:16;13.30;99.90
34492;DHT22;20737;49.908;8.126;2023-05-07T01:39:46;13.20;99.90
34492;DHT22;20737;49.908;8.126;2023-05-07T01:42:13;13.10;99.90
34492;DHT22;20737;49.908;8.126;2023-05-07T01:44:40;13.10;99.90
34492;DHT22;20737;49.908;8.126;2023-05-07T01:47:07;13.10;99.90
34492;DHT22;20737;49.908;8.126;2023-05-07T01:49:35;13.10;99.90
34492;DHT22;20737;49.908;8.126;2023-05-07T01:52:01;13.10;99.90
34492;DHT22;20737;49.908;8.126;2023-05-07T01:54:28;13.10;99.90
34492;DHT22;20737;49.908;8.126;2023-05-07T01:56:57;13.10;99.90
34492;DHT22;20737;49.908;8.126;2023-05-07T01:59:24;13.00;99.90
34492;DHT22;20737;49.908;8.126;2023-05-07T02:01:50;13.00;99.90
34492;DHT22;20737;49.908;8.126;2023-05-07T02:04:17;12.90;99.90
34492;DHT22;20737;49.908;8.126;2023-05-07T02:06:44;12.90;99.90
34492;DHT22;20737;49.908;8.126;2023-05-07T02:09:11;12.80;99.90
34492;DHT22;20737;49.908;8.126;2023-05-07T02:11:38;12.80;99.90
34492;DHT22;20737;49.908;8.126;2023-05-07T02:14:06;12.80;99.90
34492;DHT22;20737;49.908;8.126;2023-05-07T02:16:33;12.80;99.90
34492;DHT22;20737;49.908;8.126;2023-05-07T02:18:59;12.80;99.90
34492;DHT22;20737;49.908;8.126;2023-05-07T02:21:26;12.90;99.90
34492;DHT22;20737;49.908;8.126;2023-05-07T02:23:53;12.80;99.90
34492;DHT22;20737;49.908;8.126;2023-05-07T02:26:20;12.80;99.90
34492;DHT22;20737;49.908;8.126;2023-05-07T02:28:47;12.80;99.90
34492;DHT22;20737;49.908;8.126;2023-05-07T02:31:16;12.80;99.90
34492;DHT22;20737;49.908;8.126;2023-05-07T02:33:42;12.90;99.90
34492;DHT22;20737;49.908;8.126;2023-05-07T02:36:11;12.90;99.90
34492;DHT22;20737;49.908;8.126;2023-05-07T02:38:38;12.90;99.90
34492;DHT22;20737;49.908;8.126;2023-05-07T02:41:05;12.90;99.90
34492;DHT22;20737;49.908;8.126;2023-05-07T02:43:31;12.90;99.90
34492;DHT22;20737;49.908;8.126;2023-05-07T02:46:05;13.00;99.90
34492;DHT22;20737;49.908;8.126;2023-05-07T02:48:34;13.00;99.90
34492;DHT22;20737;49.908;8.126;2023-05-07T02:51:01;13.00;99.90
34492;DHT22;20737;49.908;8.126;2023-05-07T02:53:30;13.10;99.90
34492;DHT22;20737;49.908;8.126;2023-05-07T02:55:59;13.10;99.90
34492;DHT22;20737;49.908;8.126;2023-05-07T02:58:26;13.10;99.90
34492;DHT22;20737;49.908;8.126;2023-05-07T03:00:53;13.20;99.90
34492;DHT22;20737;49.908;8.126;2023-05-07T03:03:20;13.20;99.90
34492;DHT22;20737;49.908;8.126;2023-05-07T03:05:50;13.30;99.90
34492;DHT22;20737;49.908;8.126;2023-05-07T03:08:17;13.20;99.90
34492;DHT22;20737;49.908;8.126;2023-05-07T03:10:44;13.30;99.90
34492;DHT22;20737;49.908;8.126;2023-05-07T03:13:11;13.20;99.90
34492;DHT22;20737;49.908;8.126;2023-05-07T03:15:37;13.30;99.90
34492;DHT22;20737;49.908;8.126;2023-05-07T03:18:04;13.30;99.90
34492;DHT22;20737;49.908;8.126;2023-05-07T03:20:31;13.30;99.90
34492;DHT22;20737;49.908;8.126;2023-05-07T03:22:59;13.30;99.90
34492;DHT22;20737;49.908;8.126;2023-05-07T03:25:26;13.30;99.90
34492;DHT22;20737;49.908;8.126;2023-05-07T03:27:52;13.30;99.90
34492;DHT22;20737;49.908;8.126;2023-05-07T03:30:19;13.30;99.90
34492;DHT22;20737;49.908;8.126;2023-05-07T03:32:46;13.30;99.90
34492;DHT22;20737;49.908;8.126;2023-05-07T03:35:13;13.30;99.90
34492;DHT22;20737;49.908;8.126;2023-05-07T03:37:40;13.30;99.90
34492;DHT22;20737;49.908;8.126;2023-05-07T03:40:09;13.30;99.90
34492;DHT22;20737;49.908;8.126;2023-05-07T03:42:37;13.20;99.90
34492;DHT22;20737;49.908;8.126;2023-05-07T03:45:05;13.20;99.90
34492;DHT22;20737;49.908;8.126;2023-05-07T03:47:32;13.20;99.90
34492;DHT22;20737;49.908;8.126;2023-05-07T03:49:58;13.20;99.90
34492;DHT22;20737;49.908;8.126;2023-05-07T03:52:25;13.20;99.90
34492;DHT22;20737;49.908;8.126;2023-05-07T03:54:52;13.20;99.90
34492;DHT22;20737;49.908;8.126;2023-05-07T03:57:20;13.10;99.90
34492;DHT22;20737;49.908;8.126;2023-05-07T03:59:47;13.20;99.90
34492;DHT22;20737;49.908;8.126;2023-05-07T04:02:14;13.20;99.90
34492;DHT22;20737;49.908;8.126;2023-05-07T04:04:40;13.10;99.90
34492;DHT22;20737;49.908;8.126;2023-05-07T04:07:07;13.00;99.90
34492;DHT22;20737;49.908;8.126;2023-05-07T04:09:34;13.00;99.90
34492;DHT22;20737;49.908;8.126;2023-05-07T04:12:01;13.10;99.90
34492;DHT22;20737;49.908;8.126;2023-05-07T04:14:31;13.10;99.90
34492;DHT22;20737;49.908;8.126;2023-05-07T04:16:58;13.20;99.90
34492;DHT22;20737;49.908;8.126;2023-05-07T04:19:28;13.30;99.90
34492;DHT22;20737;49.908;8.126;2023-05-07T04:21:55;13.30;99.90
34492;DHT22;20737;49.908;8.126;2023-05-07T04:24:22;13.40;99.90
34492;DHT22;20737;49.908;8.126;2023-05-07T04:26:48;13.40;99.90
34492;DHT22;20737;49.908;8.126;2023-05-07T04:29:16;13.50;99.90
34492;DHT22;20737;49.908;8.126;2023-05-07T04:31:45;13.50;99.90
34492;DHT22;20737;49.908;8.126;2023-05-07T04:34:12;13.50;99.90
34492;DHT22;20737;49.908;8.126;2023-05-07T04:36:39;13.50;99.90
34492;DHT22;20737;49.908;8.126;2023-05-07T04:39:06;13.60;99.90
34492;DHT22;20737;49.908;8.126;2023-05-07T04:41:33;13.60;99.90
34492;DHT22;20737;49.908;8.126;2023-05-07T04:44:01;13.70;99.90
34492;DHT22;20737;49.908;8.126;2023-05-07T04:46:29;13.80;99.90
34492;DHT22;20737;49.908;8.126;2023-05-07T04:48:57;13.80;99.90
34492;DHT22;20737;49.908;8.126;2023-05-07T04:51:24;13.90;99.90
34492;DHT22;20737;49.908;8.126;2023-05-07T04:53:50;14.00;99.90
34492;DHT22;20737;49.908;8.126;2023-05-07T04:56:17;14.10;99.90
34492;DHT22;20737;49.908;8.126;2023-05-07T04:58:44;14.20;99.90
34492;DHT22;20737;49.908;8.126;2023-05-07T05:01:11;14.20;99.90
34492;DHT22;20737;49.908;8.126;2023-05-07T05:03:38;14.30;99.90
34492;DHT22;20737;49.908;8.126;2023-05-07T05:06:07;14.30;99.90
34492;DHT22;20737;49.908;8.126;2023-05-07T05:08:34;14.30;99.90
34492;DHT22;20737;49.908;8.126;2023-05-07T05:11:01;14.30;99.90
34492;DHT22;20737;49.908;8.126;2023-05-07T05:13:28;14.30;99.90
34492;DHT22;20737;49.908;8.126;2023-05-07T05:15:55;14.40;99.90
34492;DHT22;20737;49.908;8.126;2023-05-07T05:18:22;14.50;99.90
34492;DHT22;20737;49.908;8.126;2023-05-07T05:20:49;14.70;99.90
34492;DHT22;20737;49.908;8.126;2023-05-07T05:23:18;14.80;99.90
34492;DHT22;20737;49.908;8.126;2023-05-07T05:25:45;14.90;99.90
34492;DHT22;20737;49.908;8.126;2023-05-07T05:28:12;14.90;99.90
34492;DHT22;20737;49.908;8.126;2023-05-07T05:30:39;15.10;99.90
34492;DHT22;20737;49.908;8.126;2023-05-07T05:33:05;15.20;99.90
34492;DHT22;20737;49.908;8.126;2023-05-07T05:35:32;15.30;99.90
34492;DHT22;20737;49.908;8.126;2023-05-07T05:38:02;15.40;99.90
34492;DHT22;20737;49.908;8.126;2023-05-07T05:40:34;15.50;99.90
34492;DHT22;20737;49.908;8.126;2023-05-07T05:43:01;15.50;99.90
34492;DHT22;20737;49.908;8.126;2023-05-07T05:45:27;15.70;99.90
34492;DHT22;20737;49.908;8.126;2023-05-07T05:47:56;15.90;99.90
34492;DHT22;20737;49.908;8.126;2023-05-07T05:50:23;16.20;99.90
34492;DHT22;20737;49.908;8.126;2023-05-07T05:52:50;16.30;99.90
34492;DHT22;20737;49.908;8.126;2023-05-07T05:55:20;16.30;99.90
34492;DHT22;20737;49.908;8.126;2023-05-07T05:57:48;16.40;99.90
34492;DHT22;20737;49.908;8.126;2023-05-07T06:00:15;16.50;99.90
34492;DHT22;20737;49.908;8.126;2023-05-07T06:02:42;16.60;99.90
34492;DHT22;20737;49.908;8.126;2023-05-07T06:05:09;16.60;99.90
34492;DHT22;20737;49.908;8.126;2023-05-07T06:07:36;16.70;99.90
34492;DHT22;20737;49.908;8.126;2023-05-07T06:10:03;16.70;99.90
34492;DHT22;20737;49.908;8.126;2023-05-07T06:12:30;16.80;99.90
34492;DHT22;20737;49.908;8.126;2023-05-07T06:14:58;17.00;99.90
34492;DHT22;20737;49.908;8.126;2023-05-07T06:17:24;17.00;99.90
34492;DHT22;20737;49.908;8.126;2023-05-07T06:19:52;17.30;99.90
34492;DHT22;20737;49.908;8.126;2023-05-07T06:22:19;17.40;99.90
34492;DHT22;20737;49.908;8.126;2023-05-07T06:24:45;17.50;99.90
34492;DHT22;20737;49.908;8.126;2023-05-07T06:27:12;17.60;99.90
34492;DHT22;20737;49.908;8.126;2023-05-07T06:29:39;17.60;99.90
34492;DHT22;20737;49.908;8.126;2023-05-07T06:32:08;17.70;99.90
34492;DHT22;20737;49.908;8.126;2023-05-07T06:34:35;17.70;99.90
34492;DHT22;20737;49.908;8.126;2023-05-07T06:37:02;17.80;99.90
34492;DHT22;20737;49.908;8.126;2023-05-07T06:39:28;17.80;99.90
34492;DHT22;20737;49.908;8.126;2023-05-07T06:41:55;17.80;99.90
34492;DHT22;20737;49.908;8.126;2023-05-07T06:44:24;17.80;99.90
34492;DHT22;20737;49.908;8.126;2023-05-07T06:46:50;17.80;99.90
34492;DHT22;20737;49.908;8.126;2023-05-07T06:49:19;17.80;99.90
34492;DHT22;20737;49.908;8.126;2023-05-07T06:51:45;17.80;99.90
34492;DHT22;20737;49.908;8.126;2023-05-07T06:54:12;17.90;99.90
34492;DHT22;20737;49.908;8.126;2023-05-07T06:56:39;17.90;99.90
34492;DHT22;20737;49.908;8.126;2023-05-07T06:59:06;18.00;99.90
34492;DHT22;20737;49.908;8.126;2023-05-07T07:01:33;18.10;99.90
34492;DHT22;20737;49.908;8.126;2023-05-07T07:04:00;18.10;99.90
34492;DHT22;20737;49.908;8.126;2023-05-07T07:06:28;18.10;99.90
34492;DHT22;20737;49.908;8.126;2023-05-07T07:08:57;18.10;99.90
34492;DHT22;20737;49.908;8.126;2023-05-07T07:11:23;18.10;99.90
34492;DHT22;20737;49.908;8.126;2023-05-07T07:13:50;18.10;99.90
34492;DHT22;20737;49.908;8.126;2023-05-07T07:16:17;18.00;99.90
34492;DHT22;20737;49.908;8.126;2023-05-07T07:18:44;18.00;99.90
34492;DHT22;20737;49.908;8.126;2023-05-07T07:21:10;18.10;99.90
34492;DHT22;20737;49.908;8.126;2023-05-07T07:23:38;18.00;99.90
34492;DHT22;20737;49.908;8.126;2023-05-07T07:26:05;18.00;99.90
34492;DHT22;20737;49.908;8.126;2023-05-07T07:28:32;17.90;99.90
34492;DHT22;20737;49.908;8.126;2023-05-07T07:31:02;18.00;99.90
34492;DHT22;20737;49.908;8.126;2023-05-07T07:33:29;18.00;99.90
34492;DHT22;20737;49.908;8.126;2023-05-07T07:35:56;18.10;99.90
34492;DHT22;20737;49.908;8.126;2023-05-07T07:38:22;18.20;99.90
34492;DHT22;20737;49.908;8.126;2023-05-07T07:40:51;18.30;99.90
34492;DHT22;20737;49.908;8.126;2023-05-07T07:43:17;18.30;99.90
34492;DHT22;20737;49.908;8.126;2023-05-07T07:45:44;18.30;99.90
34492;DHT22;20737;49.908;8.126;2023-05-07T07:48:11;18.30;99.90
34492;DHT22;20737;49.908;8.126;2023-05-07T07:50:38;18.30;99.90
34492;DHT22;20737;49.908;8.126;2023-05-07T07:53:05;18.30;99.90
34492;DHT22;20737;49.908;8.126;2023-05-07T07:55:31;18.30;99.90
34492;DHT22;20737;49.908;8.126;2023-05-07T07:57:59;18.40;99.90
34492;DHT22;20737;49.908;8.126;2023-05-07T08:00:26;18.50;99.90
34492;DHT22;20737;49.908;8.126;2023-05-07T08:02:53;18.60;99.90
34492;DHT22;20737;49.908;8.126;2023-05-07T08:05:20;18.80;99.90
34492;DHT22;20737;49.908;8.126;2023-05-07T08:07:47;19.00;99.90
34492;DHT22;20737;49.908;8.126;2023-05-07T08:10:17;19.10;99.90
34492;DHT22;20737;49.908;8.126;2023-05-07T08:12:46;19.30;99.90
34492;DHT22;20737;49.908;8.126;2023-05-07T08:15:18;19.40;99.90
34492;DHT22;20737;49.908;8.126;2023-05-07T08:17:44;19.50;99.90
34492;DHT22;20737;49.908;8.126;2023-05-07T08:20:11;19.70;99.90
34492;DHT22;20737;49.908;8.126;2023-05-07T08:22:38;19.90;99.90
34492;DHT22;20737;49.908;8.126;2023-05-07T08:25:05;19.80;99.90
34492;DHT22;20737;49.908;8.126;2023-05-07T08:27:32;19.70;99.90
34492;DHT22;20737;49.908;8.126;2023-05-07T08:29:59;19.90;99.90
34492;DHT22;20737;49.908;8.126;2023-05-07T08:32:27;20.00;99.90
34492;DHT22;20737;49.908;8.126;2023-05-07T08:34:57;20.20;99.90
34492;DHT22;20737;49.908;8.126;2023-05-07T08:37:23;20.30;99.90
34492;DHT22;20737;49.908;8.126;2023-05-07T08:39:50;20.50;99.90
34492;DHT22;20737;49.908;8.126;2023-05-07T08:42:17;20.70;99.90
34492;DHT22;20737;49.908;8.126;2023-05-07T08:44:45;21.10;99.90
34492;DHT22;20737;49.908;8.126;2023-05-07T08:47:13;21.10;99.90
34492;DHT22;20737;49.908;8.126;2023-05-07T08:49:41;21.40;99.90
34492;DHT22;20737;49.908;8.126;2023-05-07T08:52:17;21.70;99.90
34492;DHT22;20737;49.908;8.126;2023-05-07T08:54:45;22.00;99.90
34492;DHT22;20737;49.908;8.126;2023-05-07T08:57:13;21.90;99.90
34492;DHT22;20737;49.908;8.126;2023-05-07T08:59:40;22.10;99.90
34492;DHT22;20737;49.908;8.126;2023-05-07T09:02:09;22.30;99.90
34492;DHT22;20737;49.908;8.126;2023-05-07T09:04:36;22.30;99.90
34492;DHT22;20737;49.908;8.126;2023-05-07T09:07:04;22.30;99.90
34492;DHT22;20737;49.908;8.126;2023-05-07T09:09:32;22.60;99.90
34492;DHT22;20737;49.908;8.126;2023-05-07T09:12:01;23.10;99.90
34492;DHT22;20737;49.908;8.126;2023-05-07T09:14:29;23.30;99.90
34492;DHT22;20737;49.908;8.126;2023-05-07T09:16:56;23.20;99.90
34492;DHT22;20737;49.908;8.126;2023-05-07T09:19:24;23.40;99.90
34492;DHT22;20737;49.908;8.126;2023-05-07T09:21:58;23.10;99.90
34492;DHT22;20737;49.908;8.126;2023-05-07T09:24:26;22.90;99.90
34492;DHT22;20737;49.908;8.126;2023-05-07T09:26:58;22.40;99.90
34492;DHT22;20737;49.908;8.126;2023-05-07T09:29:25;22.30;99.90
34492;DHT22;20737;49.908;8.126;2023-05-07T09:31:54;22.20;99.90
34492;DHT22;20737;49.908;8.126;2023-05-07T09:34:20;22.00;99.90
34492;DHT22;20737;49.908;8.126;2023-05-07T09:36:47;22.10;99.90
34492;DHT22;20737;49.908;8.126;2023-05-07T09:39:14;22.30;99.90
34492;DHT22;20737;49.908;8.126;2023-05-07T09:41:46;22.60;99.90
34492;DHT22;20737;49.908;8.126;2023-05-07T09:44:15;22.90;99.90
34492;DHT22;20737;49.908;8.126;2023-05-07T09:46:43;23.60;99.90
34492;DHT22;20737;49.908;8.126;2023-05-07T09:49:15;24.90;99.90
34492;DHT22;20737;49.908;8.126;2023-05-07T09:51:48;26.10;99.90
34492;DHT22;20737;49.908;8.126;2023-05-07T09:54:15;27.20;98.30
34492;DHT22;20737;49.908;8.126;2023-05-07T09:56:42;28.40;93.60
34492;DHT22;20737;49.908;8.126;2023-05-07T09:59:13;29.00;90.20
34492;DHT22;20737;49.908;8.126;2023-05-07T10:01:42;28.90;88.60
34492;DHT22;20737;49.908;8.126;2023-05-07T10:04:09;29.10;83.70
34492;DHT22;20737;49.908;8.126;2023-05-07T10:06:38;29.10;82.90
34492;DHT22;20737;49.908;8.126;2023-05-07T10:09:06;29.30;78.70
34492;DHT22;20737;49.908;8.126;2023-05-07T10:11:33;29.40;78.30
34492;DHT22;20737;49.908;8.126;2023-05-07T10:14:01;29.40;78.20
34492;DHT22;20737;49.908;8.126;2023-05-07T10:16:31;30.00;75.40
34492;DHT22;20737;49.908;8.126;2023-05-07T10:18:58;30.30;73.00
34492;DHT22;20737;49.908;8.126;2023-05-07T10:21:27;30.20;72.30
34492;DHT22;20737;49.908;8.126;2023-05-07T10:23:58;30.60;69.00
34492;DHT22;20737;49.908;8.126;2023-05-07T10:26:27;29.50;71.70
34492;DHT22;20737;49.908;8.126;2023-05-07T10:28:58;28.80;73.50
34492;DHT22;20737;49.908;8.126;2023-05-07T10:31:47;28.70;75.40
34492;DHT22;20737;49.908;8.126;2023-05-07T10:34:18;29.00;74.90
34492;DHT22;20737;49.908;8.126;2023-05-07T10:36:48;29.50;72.00
34492;DHT22;20737;49.908;8.126;2023-05-07T10:39:17;29.60;71.60
34492;DHT22;20737;49.908;8.126;2023-05-07T10:41:44;29.50;73.00
34492;DHT22;20737;49.908;8.126;2023-05-07T10:44:11;30.30;71.10
34492;DHT22;20737;49.908;8.126;2023-05-07T10:46:39;30.30;70.00
34492;DHT22;20737;49.908;8.126;2023-05-07T10:49:12;30.00;70.40
34492;DHT22;20737;49.908;8.126;2023-05-07T10:51:39;29.90;72.50
34492;DHT22;20737;49.908;8.126;2023-05-07T10:54:19;29.80;69.50
34492;DHT22;20737;49.908;8.126;2023-05-07T10:56:46;29.70;69.60
34492;DHT22;20737;49.908;8.126;2023-05-07T10:59:35;30.10;72.50
34492;DHT22;20737;49.908;8.126;2023-05-07T11:02:08;29.80;67.60
34492;DHT22;20737;49.908;8.126;2023-05-07T11:04:37;29.00;68.20
34492;DHT22;20737;49.908;8.126;2023-05-07T11:10:03;28.60;71.70
34492;DHT22;20737;49.908;8.126;2023-05-07T11:12:50;28.40;72.10
34492;DHT22;20737;49.908;8.126;2023-05-07T11:15:43;28.50;71.60
34492;DHT22;20737;49.908;8.126;2023-05-07T11:18:12;28.10;72.00
34492;DHT22;20737;49.908;8.126;2023-05-07T11:20:50;28.20;72.50
34492;DHT22;20737;49.908;8.126;2023-05-07T11:26:47;27.50;75.20
34492;DHT22;20737;49.908;8.126;2023-05-07T11:29:15;27.10;76.60
34492;DHT22;20737;49.908;8.126;2023-05-07T11:31:43;26.70;76.90
34492;DHT22;20737;49.908;8.126;2023-05-07T11:34:11;26.80;77.90
34492;DHT22;20737;49.908;8.126;2023-05-07T11:36:42;27.10;75.40
34492;DHT22;20737;49.908;8.126;2023-05-07T11:39:27;27.30;78.50
34492;DHT22;20737;49.908;8.126;2023-05-07T11:41:54;27.90;73.50
34492;DHT22;20737;49.908;8.126;2023-05-07T11:44:21;28.40;74.40
34492;DHT22;20737;49.908;8.126;2023-05-07T11:46:48;28.30;76.00
34492;DHT22;20737;49.908;8.126;2023-05-07T11:49:17;28.20;74.80
34492;DHT22;20737;49.908;8.126;2023-05-07T11:51:53;28.10;72.50
34492;DHT22;20737;49.908;8.126;2023-05-07T11:54:20;27.80;74.90
34492;DHT22;20737;49.908;8.126;2023-05-07T11:56:47;27.80;75.60
34492;DHT22;20737;49.908;8.126;2023-05-07T11:59:19;27.80;75.50
34492;DHT22;20737;49.908;8.126;2023-05-07T12:01:46;28.20;75.40
34492;DHT22;20737;49.908;8.126;2023-05-07T12:04:24;28.10;75.00
34492;DHT22;20737;49.908;8.126;2023-05-07T12:06:53;28.10;76.20
34492;DHT22;20737;49.908;8.126;2023-05-07T12:09:21;28.20;77.70
34492;DHT22;20737;49.908;8.126;2023-05-07T12:11:49;28.10;75.40
34492;DHT22;20737;49.908;8.126;2023-05-07T12:14:15;28.00;75.00
34492;DHT22;20737;49.908;8.126;2023-05-07T12:16:42;27.30;76.20
34492;DHT22;20737;49.908;8.126;2023-05-07T12:19:10;27.30;78.40
34492;DHT22;20737;49.908;8.126;2023-05-07T12:21:43;27.70;78.00
34492;DHT22;20737;49.908;8.126;2023-05-07T12:24:10;28.50;76.00
34492;DHT22;20737;49.908;8.126;2023-05-07T12:26:38;28.80;73.00
34492;DHT22;20737;49.908;8.126;2023-05-07T12:29:06;28.70;73.50
34492;DHT22;20737;49.908;8.126;2023-05-07T12:31:32;28.40;71.00
34492;DHT22;20737;49.908;8.126;2023-05-07T12:33:59;28.30;74.30
34492;DHT22;20737;49.908;8.126;2023-05-07T12:36:39;28.10;76.50
34492;DHT22;20737;49.908;8.126;2023-05-07T12:39:07;28.30;72.60
34492;DHT22;20737;49.908;8.126;2023-05-07T12:41:36;28.60;71.10
34492;DHT22;20737;49.908;8.126;2023-05-07T12:44:18;29.20;73.40
34492;DHT22;20737;49.908;8.126;2023-05-07T12:46:47;30.00;68.40
34492;DHT22;20737;49.908;8.126;2023-05-07T12:49:17;30.50;67.80
34492;DHT22;20737;49.908;8.126;2023-05-07T12:51:46;31.10;65.20
34492;DHT22;20737;49.908;8.126;2023-05-07T12:54:13;31.30;64.30
34492;DHT22;20737;49.908;8.126;2023-05-07T12:56:40;31.00;63.60
34492;DHT22;20737;49.908;8.126;2023-05-07T12:59:09;30.50;65.30
34492;DHT22;20737;49.908;8.126;2023-05-07T13:01:35;30.00;64.30
34492;DHT22;20737;49.908;8.126;2023-05-07T13:04:03;29.20;65.40
34492;DHT22;20737;49.908;8.126;2023-05-07T13:06:31;28.70;65.50
34492;DHT22;20737;49.908;8.126;2023-05-07T13:08:59;29.20;66.70
34492;DHT22;20737;49.908;8.126;2023-05-07T13:11:25;30.10;63.80
34492;DHT22;20737;49.908;8.126;2023-05-07T13:13:52;30.60;62.20
34492;DHT22;20737;49.908;8.126;2023-05-07T13:16:19;31.20;61.80
34492;DHT22;20737;49.908;8.126;2023-05-07T13:18:45;30.50;60.50
34492;DHT22;20737;49.908;8.126;2023-05-07T13:21:12;30.40;60.70
34492;DHT22;20737;49.908;8.126;2023-05-07T13:23:41;30.60;60.90
34492;DHT22;20737;49.908;8.126;2023-05-07T13:26:09;30.60;58.30
34492;DHT22;20737;49.908;8.126;2023-05-07T13:28:36;30.40;58.30
34492;DHT22;20737;49.908;8.126;2023-05-07T13:31:03;30.70;60.70
34492;DHT22;20737;49.908;8.126;2023-05-07T13:33:29;30.40;60.90
34492;DHT22;20737;49.908;8.126;2023-05-07T13:35:56;29.40;61.20
34492;DHT22;20737;49.908;8.126;2023-05-07T13:38:23;29.20;63.20
34492;DHT22;20737;49.908;8.126;2023-05-07T13:40:50;29.10;62.30
34492;DHT22;20737;49.908;8.126;2023-05-07T13:43:18;28.80;62.70
34492;DHT22;20737;49.908;8.126;2023-05-07T13:45:45;28.30;64.50
34492;DHT22;20737;49.908;8.126;2023-05-07T13:48:12;27.90;63.30
34492;DHT22;20737;49.908;8.126;2023-05-07T13:50:38;27.70;63.60
34492;DHT22;20737;49.908;8.126;2023-05-07T13:53:05;27.50;62.30
34492;DHT22;20737;49.908;8.126;2023-05-07T13:55:32;27.40;64.40
34492;DHT22;20737;49.908;8.126;2023-05-07T13:58:00;27.10;63.30
34492;DHT22;20737;49.908;8.126;2023-05-07T14:00:29;27.00;66.10
34492;DHT22;20737;49.908;8.126;2023-05-07T14:02:56;26.80;67.10
34492;DHT22;20737;49.908;8.126;2023-05-07T14:05:23;26.50;65.60
34492;DHT22;20737;49.908;8.126;2023-05-07T14:07:50;26.60;67.50
34492;DHT22;20737;49.908;8.126;2023-05-07T14:10:18;26.40;66.60
34492;DHT22;20737;49.908;8.126;2023-05-07T14:12:45;26.50;65.90
34492;DHT22;20737;49.908;8.126;2023-05-07T14:15:12;26.50;67.90
34492;DHT22;20737;49.908;8.126;2023-05-07T14:17:40;26.40;69.50
34492;DHT22;20737;49.908;8.126;2023-05-07T14:20:08;26.40;67.90
34492;DHT22;20737;49.908;8.126;2023-05-07T14:22:36;26.60;69.80
34492;DHT22;20737;49.908;8.126;2023-05-07T14:25:03;26.50;69.00
34492;DHT22;20737;49.908;8.126;2023-05-07T14:27:29;26.30;70.10
34492;DHT22;20737;49.908;8.126;2023-05-07T14:29:56;26.20;70.40
34492;DHT22;20737;49.908;8.126;2023-05-07T14:32:23;26.10;71.00
34492;DHT22;20737;49.908;8.126;2023-05-07T14:34:51;26.00;74.80
34492;DHT22;20737;49.908;8.126;2023-05-07T14:37:18;25.80;73.70
34492;DHT22;20737;49.908;8.126;2023-05-07T14:39:45;25.70;74.10
34492;DHT22;20737;49.908;8.126;2023-05-07T14:42:12;25.60;74.50
34492;DHT22;20737;49.908;8.126;2023-05-07T14:44:38;25.50;75.00
34492;DHT22;20737;49.908;8.126;2023-05-07T14:47:07;25.40;73.20
34492;DHT22;20737;49.908;8.126;2023-05-07T14:49:34;25.30;76.00
34492;DHT22;20737;49.908;8.126;2023-05-07T14:52:02;25.10;74.70
34492;DHT22;20737;49.908;8.126;2023-05-07T14:54:33;24.90;75.60
34492;DHT22;20737;49.908;8.126;2023-05-07T14:57:04;24.90;78.80
34492;DHT22;20737;49.908;8.126;2023-05-07T14:59:31;24.80;75.40
34492;DHT22;20737;49.908;8.126;2023-05-07T15:02:03;24.80;76.80
34492;DHT22;20737;49.908;8.126;2023-05-07T15:04:32;24.80;74.90
34492;DHT22;20737;49.908;8.126;2023-05-07T15:06:59;24.70;75.40
34492;DHT22;20737;49.908;8.126;2023-05-07T15:09:27;24.60;77.90
34492;DHT22;20737;49.908;8.126;2023-05-07T15:11:53;24.60;76.30
34492;DHT22;20737;49.908;8.126;2023-05-07T15:14:20;24.70;79.10
34492;DHT22;20737;49.908;8.126;2023-05-07T15:16:47;24.70;75.50
34492;DHT22;20737;49.908;8.126;2023-05-07T15:19:15;24.70;78.10
34492;DHT22;20737;49.908;8.126;2023-05-07T15:21:42;24.70;76.80
34492;DHT22;20737;49.908;8.126;2023-05-07T15:24:09;24.60;75.40
34492;DHT22;20737;49.908;8.126;2023-05-07T15:26:37;24.70;76.30
34492;DHT22;20737;49.908;8.126;2023-05-07T15:29:05;24.70;77.40
34492;DHT22;20737;49.908;8.126;2023-05-07T15:31:35;24.50;79.50
34492;DHT22;20737;49.908;8.126;2023-05-07T15:34:02;24.50;78.90
34492;DHT22;20737;49.908;8.126;2023-05-07T15:36:29;24.40;78.50
34492;DHT22;20737;49.908;8.126;2023-05-07T15:38:56;24.30;78.80
34492;DHT22;20737;49.908;8.126;2023-05-07T15:41:24;24.30;79.00